Terminal Aerodrome Forecast
Issued by NWS

Home | Current Version | Previous Version | Text Only | Print | Product List | Glossary On
Versions: 1 2 3 4 5 6 7 8 9 10 11 12 13 14 15 16 17 18 19 20
000
FTUS43 KICT 281131
TAFHUT
TAF
KHUT 281131Z 2812/2912 15008KT P6SM VCSH SCT025 OVC080
     FM281700 18012KT P6SM SCT050
     FM290300 18010KT P6SM SCT035 BKN080
     FM290400 15007KT P6SM VCTS SCT025CB OVC080=

USA.gov is the U.S. government's official web portal to all federal, state and local government web resources and services.